Flight Track Log - Related Links

Times and Time Zones

All times are in EDT time to prevent confusion due to time zone crossing. See the N6190S flight status page for this flight to view local times or setup timezone preferences in your user account.

Time Position Orientation Groundspeed Altitude Reporting Facility
EDT Latitude Longitude Course Direction KTS MPH feet Rate Location/Type
Mon 06:00:44 PM 41.5275 -81.6731 30° Northeast 101 116 1,200  Level Cleveland Center
Mon 06:01:21 PM 41.5381 -81.6650 103° East 102 117 2,000 1,113 Climbing Cleveland Center
Mon 06:02:21 PM 41.5300 -81.6178 140° Southeast 185 213 3,000 1,091 Climbing Cleveland Center
Mon 06:03:22 PM 41.4847 -81.5672 138° Southeast 208 239 4,200 1,279 Climbing Cleveland Center
Mon 06:04:23 PM 41.4433 -81.5167 185° South 201 231 5,600 1,377 Climbing Cleveland Center
Mon 06:05:24 PM 41.3994 -81.5217 220° Southwest 171 197 7,000 1,409 Climbing Cleveland Center
Mon 06:06:18 PM 41.3681 -81.5569 213° Southwest 164 189 8,300 1,168 Climbing Cleveland Center
Mon 06:07:17 PM 41.3303 -81.5897 206° Southwest 178 205 9,200 1,109 Climbing Cleveland Center
Mon 06:08:17 PM 41.2883 -81.6167 211° Southwest 193 222 10,500 1,350 Climbing Cleveland Center
Mon 06:09:17 PM 41.2442 -81.6517 211° Southwest 193 222 11,900 1,361 Climbing Cleveland Center
Mon 06:10:16 PM 41.1958 -81.6897 209° Southwest 193 222 13,200 1,000 Climbing Cleveland Center
Mon 06:11:17 PM 41.1475 -81.7247 211° Southwest 193 222 13,900 400 Climbing Cleveland Center
Mon 06:12:16 PM 41.0844 -81.7758 210° Southwest 224 258 14,000 50 Climbing Cleveland Center
Mon 06:13:16 PM 41.0214 -81.8242 210° Southwest 250 288 14,000  Level Cleveland Center
Mon 06:14:16 PM 40.9606 -81.8700 209° Southwest 255 293 14,000  Level Cleveland Center
Mon 06:15:17 PM 40.8994 -81.9153 211° Southwest 255 293 14,000  Level Cleveland Center
Mon 06:16:16 PM 40.8383 -81.9636 210° Southwest 255 293 14,000  Level Cleveland Center
Mon 06:17:47 PM 40.7539 -82.0283 209° Southwest 246 283 14,000  Level Indianapolis Center
Mon 06:18:47 PM 40.6919 -82.0733 210° Southwest 251 289 14,000  Level Indianapolis Center
Mon 06:19:47 PM 40.6300 -82.1214 210° Southwest 251 289 14,000  Level Indianapolis Center
Mon 06:20:47 PM 40.5700 -82.1664 209° Southwest 251 289 14,000  Level Indianapolis Center
Mon 06:21:47 PM 40.5081 -82.2111 210° Southwest 251 289 14,000  Level Indianapolis Center
Mon 06:22:47 PM 40.4461 -82.2589 210° Southwest 251 289 14,000  Level Indianapolis Center
Mon 06:23:47 PM 40.3842 -82.3061 209° Southwest 251 289 14,000  Level Indianapolis Center
Mon 06:24:47 PM 40.3158 -82.3564 209° Southwest 251 289 14,000  Level Indianapolis Center
Mon 06:25:47 PM 40.2539 -82.4011 211° Southwest 251 289 14,000  Level Indianapolis Center
Mon 06:26:47 PM 40.1981 -82.4456 209° Southwest 260 299 14,000  Level Indianapolis Center
Mon 06:27:47 PM 40.1297 -82.4956 211° Southwest 260 299 14,000  Level Indianapolis Center
Mon 06:28:47 PM 40.0694 -82.5425 208° Southwest 260 299 14,000  Level Indianapolis Center
Mon 06:29:47 PM 40.0053 -82.5867 210° Southwest 255 293 14,000 -50 Level Indianapolis Center
Mon 06:30:47 PM 39.9431 -82.6336 209° Southwest 261 300 13,900 -50 Descending Indianapolis Center
Mon 06:31:47 PM 39.8831 -82.6778 208° Southwest 261 300 13,900  Level Indianapolis Center
Mon 06:32:47 PM 39.8186 -82.7217 210° Southwest 261 300 13,900  Level Indianapolis Center
Mon 06:33:47 PM 39.7564 -82.7683 211° Southwest 261 300 13,900  Level Indianapolis Center
Mon 06:34:47 PM 39.6964 -82.8150 209° Southwest 261 300 13,900  Level Indianapolis Center
Mon 06:35:47 PM 39.6383 -82.8561 212° Southwest 261 300 13,900  Level Indianapolis Center
Mon 06:36:47 PM 39.5800 -82.9025 208° Southwest 261 300 13,900  Level Indianapolis Center
Mon 06:37:47 PM 39.5158 -82.9461 209° Southwest 261 300 13,900  Level Indianapolis Center
Mon 06:38:47 PM 39.4556 -82.9897 209° Southwest 261 300 13,900  Level Indianapolis Center
Mon 06:39:47 PM 39.3953 -83.0331 210° Southwest 261 300 13,900  Level Indianapolis Center
Mon 06:40:47 PM 39.3267 -83.0847 199° South 261 300 13,900  Level Indianapolis Center
Mon 06:41:47 PM 39.2706 -83.1092 214° Southwest 247 284 13,900  Level Indianapolis Center
Mon 06:42:47 PM 39.2019 -83.1686 212° Southwest 261 300 13,900 50 Level Indianapolis Center
Mon 06:43:47 PM 39.1414 -83.2169 209° Southwest 261 300 14,000 50 Climbing Indianapolis Center
Mon 06:44:47 PM 39.0811 -83.2600 209° Southwest 261 300 14,000  Level Indianapolis Center
Mon 06:45:47 PM 39.0208 -83.3031 210° Southwest 256 295 14,000  Level Indianapolis Center
Mon 06:46:47 PM 38.9583 -83.3486 208° Southwest 256 295 14,000  Level Indianapolis Center
Mon 06:47:47 PM 38.8958 -83.3917 208° Southwest 256 295 14,000  Level Indianapolis Center
Mon 06:48:47 PM 38.8417 -83.4289 209° Southwest 256 295 14,000  Level Indianapolis Center
Mon 06:49:47 PM 38.7769 -83.4744 210° Southwest 256 295 14,000  Level Indianapolis Center
Mon 06:50:47 PM 38.7167 -83.5197 209° Southwest 256 295 14,000 50 Level Indianapolis Center
Mon 06:51:47 PM 38.6478 -83.5678 209° Southwest 256 295 14,100 -150 Climbing Indianapolis Center
Mon 06:52:47 PM 38.5831 -83.6128 209° Southwest 261 300 13,700 -950 Descending Indianapolis Center
Mon 06:53:47 PM 38.5206 -83.6578 208° Southwest 266 306 12,200 -1,500 Descending Indianapolis Center
Mon 06:54:47 PM 38.4578 -83.7003 209° Southwest 259 298 10,700 -1,550 Descending Indianapolis Center
Mon 06:55:47 PM 38.4014 -83.7400 210° Southwest 245 282 9,100 -1,650 Descending Indianapolis Center
Mon 06:56:47 PM 38.3450 -83.7822 207° Southwest 245 282 7,400 -1,600 Descending Indianapolis Center
Mon 06:57:47 PM 38.2886 -83.8189 210° Southwest 236 272 5,900 -1,700 Descending Indianapolis Center
Mon 06:58:47 PM 38.2386 -83.8558 208° Southwest 236 272 4,000 -950 Descending Indianapolis Center
Mon 06:59:47 PM 38.1800 -83.8953 209° Southwest 236 272 4,000  Level Indianapolis Center
Mon 07:00:47 PM 38.1236 -83.9344 208° Southwest 236 272 4,000  Level Indianapolis Center
Mon 07:01:47 PM 38.0650 -83.9739 360° North 236 272 4,000  Level Indianapolis Center
Mon 07:02:47 PM 38.0650 -83.9739 360° North 236 272 4,000  Level Indianapolis Center
Mon 07:03:47 PM 38.0650 -83.9739 360° North 236 272 4,000  Level Indianapolis Center
Mon 07:04:47 PM 38.0650 -83.9739 360° North 236 272 4,000  Level Indianapolis Center
Mon 07:05:47 PM 38.0650 -83.9739 360° North 236 272 4,000  Level Indianapolis Center
Mon 07:06:47 PM 38.0650 -83.9739 360° North 236 272 4,000  Level Indianapolis Center

Login

Don't have an account? Register now (free) for customized features, flight alerts, and more!